createdAt,value
2017-07-31T00:00:25.671Z,99.90
2017-07-31T00:05:12.324Z,99.90
2017-07-31T00:09:59.709Z,99.90
2017-07-31T00:14:46.347Z,99.90
2017-07-31T00:19:40.061Z,99.90
2017-07-31T00:24:26.769Z,99.90
2017-07-31T00:29:13.376Z,99.90
2017-07-31T00:34:00.012Z,99.90
2017-07-31T00:38:46.643Z,99.90
2017-07-31T00:43:33.265Z,99.90
2017-07-31T00:48:20.654Z,99.90
2017-07-31T00:53:07.260Z,99.90
2017-07-31T00:57:54.056Z,99.90
2017-07-31T01:02:41.427Z,99.70
2017-07-31T01:07:28.038Z,99.70
2017-07-31T01:12:14.667Z,99.90
2017-07-31T01:17:01.343Z,99.90
2017-07-31T01:21:48.706Z,99.90
2017-07-31T01:26:35.537Z,99.90
2017-07-31T01:31:22.161Z,99.90
2017-07-31T01:36:08.820Z,99.90
2017-07-31T01:40:55.440Z,99.90
2017-07-31T01:45:42.080Z,99.90
2017-07-31T01:50:28.780Z,99.90
2017-07-31T01:55:15.827Z,99.90
2017-07-31T02:00:02.504Z,99.90
2017-07-31T02:04:49.377Z,99.90
2017-07-31T02:09:36.060Z,99.90
2017-07-31T02:14:22.758Z,99.70
2017-07-31T02:19:09.392Z,99.60
2017-07-31T02:23:55.995Z,99.20
2017-07-31T02:28:42.633Z,97.90
2017-07-31T02:33:29.240Z,97.00
2017-07-31T02:38:15.875Z,96.60
2017-07-31T02:43:02.497Z,97.00
2017-07-31T02:47:49.195Z,96.70
2017-07-31T02:52:35.915Z,96.40
2017-07-31T02:57:22.527Z,96.80
2017-07-31T03:02:09.202Z,96.80
2017-07-31T03:06:55.853Z,96.50
2017-07-31T03:11:43.232Z,97.20
2017-07-31T03:16:29.864Z,97.10
2017-07-31T03:21:16.817Z,96.40
2017-07-31T03:26:03.503Z,97.10
2017-07-31T03:30:50.163Z,97.50
2017-07-31T03:35:36.907Z,97.60
2017-07-31T03:40:24.294Z,97.80
2017-07-31T03:45:11.033Z,97.80
2017-07-31T03:49:57.716Z,97.50
2017-07-31T03:54:44.728Z,97.30
2017-07-31T03:59:31.353Z,97.30
2017-07-31T04:04:17.965Z,98.00
2017-07-31T04:09:04.598Z,97.90
2017-07-31T04:13:51.213Z,98.10
2017-07-31T04:18:37.862Z,98.60
2017-07-31T04:23:24.502Z,98.60
2017-07-31T04:28:11.122Z,98.20
2017-07-31T04:32:57.744Z,97.50
2017-07-31T04:37:44.383Z,97.90
2017-07-31T04:42:31.042Z,97.90
2017-07-31T04:47:17.710Z,98.00
2017-07-31T04:52:04.374Z,98.30
2017-07-31T04:56:51.017Z,98.50
2017-07-31T05:01:37.642Z,98.10
2017-07-31T05:06:24.285Z,97.90
2017-07-31T05:11:10.928Z,98.30
2017-07-31T05:15:57.559Z,97.80
2017-07-31T05:20:44.918Z,96.90
2017-07-31T05:25:31.569Z,96.80
2017-07-31T05:30:18.172Z,97.60
2017-07-31T05:35:04.871Z,96.20
2017-07-31T05:39:51.501Z,95.90
2017-07-31T05:44:38.133Z,95.30
2017-07-31T05:49:24.788Z,94.70
2017-07-31T05:54:11.681Z,94.40
2017-07-31T05:58:58.299Z,94.80
2017-07-31T06:03:44.931Z,94.70
2017-07-31T06:08:31.584Z,94.00
2017-07-31T06:13:18.214Z,93.20
2017-07-31T06:18:04.838Z,92.40
2017-07-31T06:22:51.454Z,92.30
2017-07-31T06:27:38.893Z,90.80
2017-07-31T06:32:26.279Z,90.00
2017-07-31T06:37:12.985Z,90.00
2017-07-31T06:41:59.695Z,86.80
2017-07-31T06:46:46.414Z,82.90
2017-07-31T06:51:33.385Z,82.00
2017-07-31T06:56:20.008Z,82.50
2017-07-31T07:01:06.627Z,85.00
2017-07-31T07:05:53.270Z,84.50
2017-07-31T07:10:39.929Z,82.80
2017-07-31T07:15:26.570Z,80.60
2017-07-31T07:20:14.278Z,79.90
2017-07-31T07:25:01.673Z,79.30
2017-07-31T07:29:48.361Z,79.30
2017-07-31T07:34:35.035Z,77.70
2017-07-31T07:39:21.713Z,80.50
2017-07-31T07:44:08.521Z,82.50
2017-07-31T07:48:55.181Z,80.20
2017-07-31T07:53:41.830Z,83.20
2017-07-31T07:58:28.432Z,84.40
2017-07-31T08:03:15.060Z,80.00
2017-07-31T08:08:01.797Z,77.50
2017-07-31T08:12:49.159Z,76.70
2017-07-31T08:17:35.808Z,75.90
2017-07-31T08:22:22.437Z,73.30
2017-07-31T08:27:09.040Z,73.30
2017-07-31T08:31:55.666Z,71.50
2017-07-31T08:36:42.330Z,67.00
2017-07-31T08:41:28.970Z,66.90
2017-07-31T08:46:16.378Z,63.00
2017-07-31T08:51:03.020Z,63.10
2017-07-31T08:55:50.397Z,64.30
2017-07-31T09:00:37.096Z,64.50
2017-07-31T09:05:23.719Z,59.10
2017-07-31T09:10:10.365Z,57.40
2017-07-31T09:14:57.153Z,55.40
2017-07-31T09:19:44.652Z,56.30
2017-07-31T09:24:31.300Z,56.20
2017-07-31T09:29:18.665Z,51.90
2017-07-31T09:34:05.370Z,51.80
2017-07-31T09:38:52.821Z,58.90
2017-07-31T09:43:46.516Z,58.70
2017-07-31T09:48:33.181Z,60.00
2017-07-31T09:53:19.853Z,62.00
2017-07-31T09:58:06.452Z,61.60
2017-07-31T10:02:53.935Z,62.10
2017-07-31T10:07:40.580Z,62.00
2017-07-31T10:12:27.213Z,61.10
2017-07-31T10:17:13.850Z,59.90
2017-07-31T10:22:01.261Z,56.10
2017-07-31T10:26:47.931Z,56.00
2017-07-31T10:31:34.628Z,56.10
2017-07-31T10:36:22.113Z,56.20
2017-07-31T10:41:08.740Z,56.20
2017-07-31T10:45:55.421Z,55.10
2017-07-31T10:50:42.810Z,53.80
2017-07-31T10:55:29.429Z,53.70
2017-07-31T11:00:16.061Z,55.40
2017-07-31T11:05:02.768Z,54.20
2017-07-31T11:09:49.474Z,52.30
2017-07-31T11:14:36.148Z,51.90
2017-07-31T11:19:22.913Z,48.60
2017-07-31T11:24:09.531Z,45.70
2017-07-31T11:28:56.177Z,49.60
2017-07-31T11:33:42.822Z,51.20
2017-07-31T11:38:29.465Z,50.40
2017-07-31T11:43:16.080Z,49.40
2017-07-31T11:48:03.576Z,48.30
2017-07-31T11:52:50.222Z,48.30
2017-07-31T11:57:36.857Z,47.50
2017-07-31T12:02:24.254Z,52.10
2017-07-31T12:07:10.944Z,51.90
2017-07-31T12:11:57.705Z,48.40
2017-07-31T12:16:44.329Z,51.70
2017-07-31T12:21:30.956Z,46.60
2017-07-31T12:26:17.621Z,44.10
2017-07-31T12:31:04.252Z,42.80
2017-07-31T12:35:50.877Z,42.20
2017-07-31T12:40:37.518Z,41.80
2017-07-31T12:45:24.159Z,41.70
2017-07-31T12:50:10.805Z,44.00
2017-07-31T12:54:58.184Z,42.40
2017-07-31T12:59:44.808Z,42.30
2017-07-31T13:04:31.736Z,43.60
2017-07-31T13:09:18.381Z,45.30
2017-07-31T13:14:05.103Z,48.60
2017-07-31T13:18:51.786Z,49.40
2017-07-31T13:23:38.474Z,45.30
2017-07-31T13:28:25.202Z,43.20
2017-07-31T13:33:12.565Z,47.00
2017-07-31T13:37:59.196Z,47.00
2017-07-31T13:42:45.953Z,49.00
2017-07-31T13:47:32.590Z,47.80
2017-07-31T13:52:19.945Z,49.50
2017-07-31T13:57:06.734Z,49.50
2017-07-31T14:01:53.413Z,49.10
2017-07-31T14:06:40.074Z,49.30
2017-07-31T14:11:26.809Z,46.60
2017-07-31T14:16:13.547Z,47.30
2017-07-31T14:21:00.909Z,49.70
2017-07-31T14:25:47.792Z,49.70
2017-07-31T14:30:34.442Z,45.90
2017-07-31T14:35:21.082Z,48.20
2017-07-31T14:40:07.766Z,49.10
2017-07-31T14:44:54.378Z,46.20
2017-07-31T14:49:41.837Z,47.00
2017-07-31T14:54:29.214Z,47.40
2017-07-31T14:59:15.860Z,47.40
2017-07-31T15:04:02.525Z,49.10
2017-07-31T15:08:49.399Z,47.20
2017-07-31T15:13:36.027Z,50.90
2017-07-31T15:18:22.717Z,49.80
2017-07-31T15:23:09.396Z,50.20
2017-07-31T15:27:57.005Z,50.40
2017-07-31T15:32:43.790Z,50.70
2017-07-31T15:37:30.425Z,50.80
2017-07-31T15:42:17.084Z,50.60
2017-07-31T15:47:03.748Z,52.40
2017-07-31T15:51:50.837Z,52.40
2017-07-31T15:56:37.468Z,51.20
2017-07-31T16:01:24.259Z,52.70
2017-07-31T16:06:10.903Z,51.50
2017-07-31T16:10:57.519Z,54.20
2017-07-31T16:15:44.173Z,54.10
2017-07-31T16:20:30.794Z,55.10
2017-07-31T16:25:17.414Z,55.40
2017-07-31T16:30:04.084Z,54.90
2017-07-31T16:34:50.704Z,55.50
2017-07-31T16:39:37.347Z,55.80
2017-07-31T16:44:52.132Z,55.60
2017-07-31T16:49:39.589Z,55.90
2017-07-31T16:54:26.969Z,56.60
2017-07-31T16:59:13.604Z,56.60
2017-07-31T17:04:00.233Z,57.60
2017-07-31T17:08:47.066Z,56.50
2017-07-31T17:13:34.093Z,58.00
2017-07-31T17:18:20.705Z,58.10
2017-07-31T17:23:07.368Z,56.20
2017-07-31T17:27:54.036Z,55.60
2017-07-31T17:32:40.753Z,56.00
2017-07-31T17:37:27.485Z,57.50
2017-07-31T17:42:14.121Z,58.10
2017-07-31T17:47:01.340Z,58.80
2017-07-31T17:51:48.079Z,59.20
2017-07-31T17:56:35.457Z,60.70
2017-07-31T18:01:23.085Z,60.00
2017-07-31T18:06:09.733Z,60.80
2017-07-31T18:10:56.422Z,63.50
2017-07-31T18:15:43.870Z,65.70
2017-07-31T18:20:30.544Z,65.60
2017-07-31T18:25:17.158Z,65.60
2017-07-31T18:30:03.813Z,67.00
2017-07-31T18:34:50.448Z,68.20
2017-07-31T18:39:37.094Z,68.80
2017-07-31T18:44:23.802Z,66.80
2017-07-31T18:49:10.993Z,66.00
2017-07-31T18:53:57.629Z,66.70
2017-07-31T18:58:45.064Z,68.00
2017-07-31T19:03:32.524Z,67.00
2017-07-31T19:08:19.253Z,66.90
2017-07-31T19:13:06.030Z,67.20
2017-07-31T19:17:52.684Z,67.20
2017-07-31T19:22:39.352Z,67.60
2017-07-31T19:27:26.049Z,67.30
2017-07-31T19:32:12.711Z,67.00
2017-07-31T19:36:59.363Z,66.60
2017-07-31T19:41:46.058Z,69.50
2017-07-31T19:46:32.708Z,70.10
2017-07-31T19:51:19.332Z,73.60
2017-07-31T19:56:05.995Z,75.50
2017-07-31T20:00:52.675Z,78.20
2017-07-31T20:05:39.459Z,79.10
2017-07-31T20:10:26.237Z,80.00
2017-07-31T20:15:13.222Z,81.30
2017-07-31T20:19:59.897Z,81.10
2017-07-31T20:24:46.634Z,81.60
2017-07-31T20:29:33.274Z,80.40
2017-07-31T20:34:20.015Z,82.10
2017-07-31T20:39:14.353Z,84.80
2017-07-31T20:44:01.015Z,84.80
2017-07-31T20:48:47.656Z,86.50
2017-07-31T20:53:34.455Z,86.50
2017-07-31T20:58:21.106Z,87.10
2017-07-31T21:03:08.491Z,88.90
2017-07-31T21:07:55.196Z,88.20
2017-07-31T21:12:41.878Z,88.80
2017-07-31T21:17:29.254Z,90.30
2017-07-31T21:22:15.930Z,90.20
2017-07-31T21:27:02.956Z,90.00
2017-07-31T21:31:49.571Z,91.20
2017-07-31T21:36:36.267Z,91.30
2017-07-31T21:41:22.909Z,91.70
2017-07-31T21:46:09.533Z,91.80
2017-07-31T21:50:56.181Z,92.20
2017-07-31T21:55:43.522Z,92.60
2017-07-31T22:00:30.902Z,92.60
2017-07-31T22:05:17.850Z,92.60
2017-07-31T22:10:04.463Z,92.50
2017-07-31T22:14:51.097Z,92.90
2017-07-31T22:19:37.711Z,93.30
2017-07-31T22:24:24.365Z,93.40
2017-07-31T22:29:11.770Z,94.50
2017-07-31T22:33:58.401Z,94.40
2017-07-31T22:38:45.046Z,94.60
2017-07-31T22:43:32.458Z,95.00
2017-07-31T22:48:19.090Z,95.00
2017-07-31T22:53:06.097Z,95.10
2017-07-31T22:57:52.746Z,95.30
2017-07-31T23:02:40.108Z,96.00
2017-07-31T23:07:26.769Z,96.00
2017-07-31T23:12:13.389Z,96.40
2017-07-31T23:17:00.087Z,96.30
2017-07-31T23:21:46.741Z,96.50
2017-07-31T23:26:33.360Z,96.60
2017-07-31T23:31:19.973Z,96.70
2017-07-31T23:36:06.624Z,97.40
2017-07-31T23:40:54.162Z,97.70
2017-07-31T23:45:41.541Z,97.80
2017-07-31T23:50:28.198Z,97.70
2017-07-31T23:55:14.831Z,98.30
